sensor_id;sensor_type;location;lat;lon;timestamp;P1;durP1;ratioP1;P2;durP2;ratioP2
47053;SDS011;32811;52.382;5.270;2022-09-09T00:03:59;2.58;;;0.50;;
47053;SDS011;32811;52.382;5.270;2022-09-09T00:06:55;2.53;;;0.40;;
47053;SDS011;32811;52.382;5.270;2022-09-09T00:09:28;1.95;;;0.57;;
47053;SDS011;32811;52.382;5.270;2022-09-09T00:12:15;1.83;;;0.45;;
47053;SDS011;32811;52.382;5.270;2022-09-09T00:14:55;0.85;;;0.70;;
47053;SDS011;32811;52.382;5.270;2022-09-09T00:20:16;1.75;;;0.40;;
47053;SDS011;32811;52.382;5.270;2022-09-09T00:23:06;1.38;;;0.40;;
47053;SDS011;32811;52.382;5.270;2022-09-09T00:25:50;2.38;;;0.32;;
47053;SDS011;32811;52.382;5.270;2022-09-09T00:28:26;2.42;;;0.50;;
47053;SDS011;32811;52.382;5.270;2022-09-09T00:30:56;2.08;;;0.40;;
47053;SDS011;32811;52.382;5.270;2022-09-09T00:33:28;3.25;;;0.45;;
47053;SDS011;32811;52.382;5.270;2022-09-09T00:35:57;2.05;;;0.40;;
47053;SDS011;32811;52.382;5.270;2022-09-09T00:38:35;4.53;;;0.88;;
47053;SDS011;32811;52.382;5.270;2022-09-09T00:43:37;1.20;;;0.38;;
47053;SDS011;32811;52.382;5.270;2022-09-09T00:49:13;1.58;;;0.40;;
47053;SDS011;32811;52.382;5.270;2022-09-09T00:57:05;4.18;;;0.40;;
47053;SDS011;32811;52.382;5.270;2022-09-09T00:59:43;2.97;;;0.20;;
47053;SDS011;32811;52.382;5.270;2022-09-09T01:02:16;1.83;;;0.47;;
47053;SDS011;32811;52.382;5.270;2022-09-09T01:04:58;1.50;;;0.60;;
47053;SDS011;32811;52.382;5.270;2022-09-09T01:07:50;1.98;;;0.50;;
47053;SDS011;32811;52.382;5.270;2022-09-09T01:10:30;2.42;;;0.50;;
47053;SDS011;32811;52.382;5.270;2022-09-09T01:13:02;2.38;;;0.50;;
47053;SDS011;32811;52.382;5.270;2022-09-09T01:15:37;1.23;;;0.45;;
47053;SDS011;32811;52.382;5.270;2022-09-09T01:18:10;2.88;;;0.55;;
47053;SDS011;32811;52.382;5.270;2022-09-09T01:28:56;4.43;;;0.70;;
47053;SDS011;32811;52.382;5.270;2022-09-09T01:31:26;1.98;;;0.70;;
47053;SDS011;32811;52.382;5.270;2022-09-09T01:33:58;2.58;;;0.73;;
47053;SDS011;32811;52.382;5.270;2022-09-09T01:36:42;3.35;;;0.55;;
47053;SDS011;32811;52.382;5.270;2022-09-09T01:39:17;2.30;;;0.60;;
47053;SDS011;32811;52.382;5.270;2022-09-09T01:41:44;2.53;;;0.70;;
47053;SDS011;32811;52.382;5.270;2022-09-09T01:44:19;5.90;;;0.80;;
47053;SDS011;32811;52.382;5.270;2022-09-09T01:46:50;2.40;;;0.80;;
47053;SDS011;32811;52.382;5.270;2022-09-09T01:49:36;5.07;;;0.95;;
47053;SDS011;32811;52.382;5.270;2022-09-09T01:52:34;1.55;;;0.93;;
47053;SDS011;32811;52.382;5.270;2022-09-09T01:55:02;3.58;;;0.95;;
47053;SDS011;32811;52.382;5.270;2022-09-09T02:00:06;2.65;;;1.02;;
47053;SDS011;32811;52.382;5.270;2022-09-09T02:02:43;3.63;;;1.30;;
47053;SDS011;32811;52.382;5.270;2022-09-09T02:08:08;3.38;;;1.63;;
47053;SDS011;32811;52.382;5.270;2022-09-09T02:13:21;2.45;;;1.55;;
47053;SDS011;32811;52.382;5.270;2022-09-09T02:16:12;3.67;;;1.45;;
47053;SDS011;32811;52.382;5.270;2022-09-09T02:21:21;3.17;;;1.50;;
47053;SDS011;32811;52.382;5.270;2022-09-09T02:23:48;4.88;;;1.30;;
47053;SDS011;32811;52.382;5.270;2022-09-09T02:26:18;4.40;;;1.50;;
47053;SDS011;32811;52.382;5.270;2022-09-09T02:28:50;2.78;;;1.70;;
47053;SDS011;32811;52.382;5.270;2022-09-09T02:31:18;1.95;;;1.30;;
47053;SDS011;32811;52.382;5.270;2022-09-09T02:33:51;3.58;;;1.75;;
47053;SDS011;32811;52.382;5.270;2022-09-09T02:36:22;3.28;;;1.52;;
47053;SDS011;32811;52.382;5.270;2022-09-09T02:38:53;5.60;;;1.73;;
47053;SDS011;32811;52.382;5.270;2022-09-09T02:41:32;4.90;;;2.10;;
47053;SDS011;32811;52.382;5.270;2022-09-09T02:44:25;4.72;;;1.88;;
47053;SDS011;32811;52.382;5.270;2022-09-09T02:58:21;4.10;;;2.08;;
47053;SDS011;32811;52.382;5.270;2022-09-09T03:00:49;5.53;;;2.55;;
47053;SDS011;32811;52.382;5.270;2022-09-09T03:03:41;6.47;;;2.00;;
47053;SDS011;32811;52.382;5.270;2022-09-09T03:06:21;4.22;;;2.85;;
47053;SDS011;32811;52.382;5.270;2022-09-09T03:08:56;6.15;;;2.70;;
47053;SDS011;32811;52.382;5.270;2022-09-09T03:11:33;6.25;;;2.70;;
47053;SDS011;32811;52.382;5.270;2022-09-09T03:14:11;5.88;;;2.63;;
47053;SDS011;32811;52.382;5.270;2022-09-09T03:16:47;4.13;;;2.90;;
47053;SDS011;32811;52.382;5.270;2022-09-09T03:19:26;11.05;;;3.40;;
47053;SDS011;32811;52.382;5.270;2022-09-09T03:22:05;4.75;;;2.63;;
47053;SDS011;32811;52.382;5.270;2022-09-09T03:24:38;6.40;;;3.00;;
47053;SDS011;32811;52.382;5.270;2022-09-09T03:27:38;9.27;;;3.30;;
47053;SDS011;32811;52.382;5.270;2022-09-09T03:30:04;6.40;;;3.10;;
47053;SDS011;32811;52.382;5.270;2022-09-09T03:32:33;3.88;;;2.90;;
47053;SDS011;32811;52.382;5.270;2022-09-09T03:34:59;4.68;;;3.20;;
47053;SDS011;32811;52.382;5.270;2022-09-09T03:37:26;3.75;;;2.58;;
47053;SDS011;32811;52.382;5.270;2022-09-09T03:39:54;3.97;;;3.05;;
47053;SDS011;32811;52.382;5.270;2022-09-09T03:42:21;5.68;;;2.92;;
47053;SDS011;32811;52.382;5.270;2022-09-09T03:44:48;5.60;;;2.70;;
47053;SDS011;32811;52.382;5.270;2022-09-09T03:47:17;5.70;;;2.67;;
47053;SDS011;32811;52.382;5.270;2022-09-09T03:49:45;6.90;;;3.20;;
47053;SDS011;32811;52.382;5.270;2022-09-09T03:52:12;6.35;;;2.08;;
47053;SDS011;32811;52.382;5.270;2022-09-09T03:54:38;6.13;;;2.92;;
47053;SDS011;32811;52.382;5.270;2022-09-09T03:57:05;6.72;;;2.63;;
47053;SDS011;32811;52.382;5.270;2022-09-09T03:59:32;4.63;;;2.40;;
47053;SDS011;32811;52.382;5.270;2022-09-09T04:02:02;4.30;;;2.72;;
47053;SDS011;32811;52.382;5.270;2022-09-09T04:05:01;6.18;;;2.00;;
47053;SDS011;32811;52.382;5.270;2022-09-09T04:07:31;5.93;;;2.78;;
47053;SDS011;32811;52.382;5.270;2022-09-09T04:09:58;4.85;;;2.22;;
47053;SDS011;32811;52.382;5.270;2022-09-09T04:12:25;2.85;;;2.10;;
47053;SDS011;32811;52.382;5.270;2022-09-09T04:14:51;5.50;;;3.30;;
47053;SDS011;32811;52.382;5.270;2022-09-09T04:17:18;4.00;;;2.70;;
47053;SDS011;32811;52.382;5.270;2022-09-09T04:19:44;5.05;;;3.47;;
47053;SDS011;32811;52.382;5.270;2022-09-09T04:22:11;4.85;;;2.90;;
47053;SDS011;32811;52.382;5.270;2022-09-09T04:24:37;7.63;;;2.85;;
47053;SDS011;32811;52.382;5.270;2022-09-09T04:27:04;4.13;;;2.45;;
47053;SDS011;32811;52.382;5.270;2022-09-09T04:29:30;4.10;;;2.60;;
47053;SDS011;32811;52.382;5.270;2022-09-09T04:31:57;6.43;;;2.65;;
47053;SDS011;32811;52.382;5.270;2022-09-09T04:34:23;6.10;;;3.25;;
47053;SDS011;32811;52.382;5.270;2022-09-09T04:36:51;6.00;;;2.63;;
47053;SDS011;32811;52.382;5.270;2022-09-09T04:39:22;4.57;;;2.63;;
47053;SDS011;32811;52.382;5.270;2022-09-09T04:41:52;3.42;;;2.40;;
47053;SDS011;32811;52.382;5.270;2022-09-09T04:44:19;6.78;;;3.60;;
47053;SDS011;32811;52.382;5.270;2022-09-09T04:46:46;9.98;;;2.75;;
47053;SDS011;32811;52.382;5.270;2022-09-09T04:49:12;5.18;;;2.10;;
47053;SDS011;32811;52.382;5.270;2022-09-09T04:51:40;5.78;;;3.08;;
47053;SDS011;32811;52.382;5.270;2022-09-09T04:54:07;6.22;;;2.55;;
47053;SDS011;32811;52.382;5.270;2022-09-09T04:56:33;5.55;;;3.08;;
47053;SDS011;32811;52.382;5.270;2022-09-09T04:59:00;6.60;;;2.92;;
47053;SDS011;32811;52.382;5.270;2022-09-09T05:01:28;3.08;;;2.50;;
47053;SDS011;32811;52.382;5.270;2022-09-09T05:03:55;4.07;;;2.72;;
47053;SDS011;32811;52.382;5.270;2022-09-09T05:06:22;3.97;;;2.75;;
47053;SDS011;32811;52.382;5.270;2022-09-09T05:08:49;6.22;;;2.40;;
47053;SDS011;32811;52.382;5.270;2022-09-09T05:11:16;9.68;;;3.35;;
47053;SDS011;32811;52.382;5.270;2022-09-09T05:13:44;3.53;;;2.50;;
47053;SDS011;32811;52.382;5.270;2022-09-09T05:16:12;5.95;;;2.80;;
47053;SDS011;32811;52.382;5.270;2022-09-09T05:18:40;3.35;;;2.35;;
47053;SDS011;32811;52.382;5.270;2022-09-09T05:21:09;7.40;;;2.55;;
47053;SDS011;32811;52.382;5.270;2022-09-09T05:23:39;10.10;;;2.08;;
47053;SDS011;32811;52.382;5.270;2022-09-09T05:26:07;6.10;;;2.22;;
47053;SDS011;32811;52.382;5.270;2022-09-09T05:28:42;5.38;;;2.72;;
47053;SDS011;32811;52.382;5.270;2022-09-09T05:31:09;5.22;;;2.38;;
47053;SDS011;32811;52.382;5.270;2022-09-09T05:33:40;5.75;;;2.20;;
47053;SDS011;32811;52.382;5.270;2022-09-09T05:36:10;4.97;;;2.47;;
47053;SDS011;32811;52.382;5.270;2022-09-09T05:38:39;3.08;;;2.05;;
47053;SDS011;32811;52.382;5.270;2022-09-09T05:41:07;4.72;;;2.50;;
47053;SDS011;32811;52.382;5.270;2022-09-09T05:43:34;3.17;;;2.78;;
47053;SDS011;32811;52.382;5.270;2022-09-09T05:48:34;8.10;;;2.08;;
47053;SDS011;32811;52.382;5.270;2022-09-09T05:51:07;3.10;;;2.38;;
47053;SDS011;32811;52.382;5.270;2022-09-09T05:53:36;6.93;;;2.72;;
47053;SDS011;32811;52.382;5.270;2022-09-09T05:56:04;5.07;;;2.25;;
47053;SDS011;32811;52.382;5.270;2022-09-09T05:58:32;4.80;;;2.00;;
47053;SDS011;32811;52.382;5.270;2022-09-09T06:01:01;5.60;;;2.22;;
47053;SDS011;32811;52.382;5.270;2022-09-09T06:03:34;5.03;;;2.10;;
47053;SDS011;32811;52.382;5.270;2022-09-09T06:06:05;6.07;;;2.22;;
47053;SDS011;32811;52.382;5.270;2022-09-09T06:08:34;4.75;;;1.60;;
47053;SDS011;32811;52.382;5.270;2022-09-09T06:11:08;5.15;;;1.65;;
47053;SDS011;32811;52.382;5.270;2022-09-09T06:13:37;4.20;;;1.85;;
47053;SDS011;32811;52.382;5.270;2022-09-09T06:16:08;6.88;;;2.15;;
47053;SDS011;32811;52.382;5.270;2022-09-09T06:18:38;4.68;;;1.58;;
47053;SDS011;32811;52.382;5.270;2022-09-09T06:21:06;4.97;;;1.60;;
47053;SDS011;32811;52.382;5.270;2022-09-09T06:23:35;5.95;;;1.55;;
47053;SDS011;32811;52.382;5.270;2022-09-09T06:26:02;9.23;;;2.03;;
47053;SDS011;32811;52.382;5.270;2022-09-09T06:28:35;3.28;;;1.50;;
47053;SDS011;32811;52.382;5.270;2022-09-09T06:31:07;5.05;;;1.90;;
47053;SDS011;32811;52.382;5.270;2022-09-09T06:33:39;4.53;;;1.88;;
47053;SDS011;32811;52.382;5.270;2022-09-09T06:36:10;5.07;;;1.85;;
47053;SDS011;32811;52.382;5.270;2022-09-09T06:38:39;5.25;;;2.00;;
47053;SDS011;32811;52.382;5.270;2022-09-09T06:41:05;6.95;;;1.95;;
47053;SDS011;32811;52.382;5.270;2022-09-09T06:43:32;4.57;;;1.38;;
47053;SDS011;32811;52.382;5.270;2022-09-09T06:46:03;4.78;;;1.30;;
47053;SDS011;32811;52.382;5.270;2022-09-09T06:48:34;6.35;;;1.83;;
47053;SDS011;32811;52.382;5.270;2022-09-09T06:51:02;4.60;;;1.30;;
47053;SDS011;32811;52.382;5.270;2022-09-09T06:53:33;3.80;;;1.30;;
47053;SDS011;32811;52.382;5.270;2022-09-09T06:56:01;7.75;;;1.70;;
47053;SDS011;32811;52.382;5.270;2022-09-09T06:58:43;8.30;;;2.95;;
47053;SDS011;32811;52.382;5.270;2022-09-09T07:01:12;4.32;;;1.30;;
47053;SDS011;32811;52.382;5.270;2022-09-09T07:03:40;5.20;;;2.05;;
47053;SDS011;32811;52.382;5.270;2022-09-09T07:06:08;5.38;;;1.83;;
47053;SDS011;32811;52.382;5.270;2022-09-09T07:08:53;8.65;;;1.60;;
47053;SDS011;32811;52.382;5.270;2022-09-09T07:11:22;5.38;;;1.30;;
47053;SDS011;32811;52.382;5.270;2022-09-09T07:13:52;6.05;;;1.17;;
47053;SDS011;32811;52.382;5.270;2022-09-09T07:16:20;5.68;;;1.88;;
47053;SDS011;32811;52.382;5.270;2022-09-09T07:18:50;6.03;;;1.10;;
47053;SDS011;32811;52.382;5.270;2022-09-09T07:21:17;11.43;;;1.20;;
47053;SDS011;32811;52.382;5.270;2022-09-09T07:23:46;7.18;;;1.63;;
47053;SDS011;32811;52.382;5.270;2022-09-09T07:26:14;5.90;;;1.20;;
47053;SDS011;32811;52.382;5.270;2022-09-09T07:28:42;5.10;;;1.10;;
47053;SDS011;32811;52.382;5.270;2022-09-09T07:31:12;7.57;;;1.00;;
47053;SDS011;32811;52.382;5.270;2022-09-09T07:33:43;6.53;;;2.00;;
47053;SDS011;32811;52.382;5.270;2022-09-09T07:36:14;4.57;;;1.10;;
47053;SDS011;32811;52.382;5.270;2022-09-09T07:38:49;5.88;;;1.17;;
47053;SDS011;32811;52.382;5.270;2022-09-09T07:41:19;7.05;;;1.45;;
47053;SDS011;32811;52.382;5.270;2022-09-09T07:43:48;5.35;;;1.02;;
47053;SDS011;32811;52.382;5.270;2022-09-09T07:46:16;5.07;;;1.38;;
47053;SDS011;32811;52.382;5.270;2022-09-09T07:48:46;6.47;;;1.08;;
47053;SDS011;32811;52.382;5.270;2022-09-09T07:51:20;8.40;;;1.88;;
47053;SDS011;32811;52.382;5.270;2022-09-09T07:53:58;5.82;;;1.27;;
47053;SDS011;32811;52.382;5.270;2022-09-09T07:56:28;8.77;;;1.52;;
47053;SDS011;32811;52.382;5.270;2022-09-09T07:58:56;5.15;;;1.02;;
47053;SDS011;32811;52.382;5.270;2022-09-09T08:01:28;4.75;;;1.02;;
47053;SDS011;32811;52.382;5.270;2022-09-09T08:04:01;7.35;;;1.20;;
47053;SDS011;32811;52.382;5.270;2022-09-09T08:06:30;10.48;;;2.72;;
47053;SDS011;32811;52.382;5.270;2022-09-09T08:09:01;5.80;;;1.00;;
47053;SDS011;32811;52.382;5.270;2022-09-09T08:11:29;8.63;;;1.75;;
47053;SDS011;32811;52.382;5.270;2022-09-09T08:14:02;7.35;;;1.35;;
47053;SDS011;32811;52.382;5.270;2022-09-09T08:16:31;12.18;;;1.42;;
47053;SDS011;32811;52.382;5.270;2022-09-09T08:18:59;8.77;;;2.28;;
47053;SDS011;32811;52.382;5.270;2022-09-09T08:21:29;4.03;;;1.15;;
47053;SDS011;32811;52.382;5.270;2022-09-09T08:23:58;5.82;;;1.23;;
47053;SDS011;32811;52.382;5.270;2022-09-09T08:26:30;9.07;;;1.80;;
47053;SDS011;32811;52.382;5.270;2022-09-09T08:28:59;6.88;;;1.45;;
47053;SDS011;32811;52.382;5.270;2022-09-09T08:31:27;7.57;;;1.50;;
47053;SDS011;32811;52.382;5.270;2022-09-09T08:33:55;10.95;;;2.15;;
47053;SDS011;32811;52.382;5.270;2022-09-09T08:36:26;6.35;;;0.82;;
47053;SDS011;32811;52.382;5.270;2022-09-09T08:38:55;7.78;;;1.30;;
47053;SDS011;32811;52.382;5.270;2022-09-09T08:44:14;4.38;;;1.00;;
47053;SDS011;32811;52.382;5.270;2022-09-09T08:51:58;5.43;;;1.23;;
47053;SDS011;32811;52.382;5.270;2022-09-09T08:54:25;4.63;;;0.82;;
47053;SDS011;32811;52.382;5.270;2022-09-09T08:57:24;4.40;;;1.10;;
47053;SDS011;32811;52.382;5.270;2022-09-09T08:59:54;8.02;;;0.90;;
47053;SDS011;32811;52.382;5.270;2022-09-09T09:02:38;5.63;;;1.00;;
47053;SDS011;32811;52.382;5.270;2022-09-09T09:05:23;3.63;;;0.98;;
47053;SDS011;32811;52.382;5.270;2022-09-09T09:10:56;4.43;;;0.90;;
47053;SDS011;32811;52.382;5.270;2022-09-09T09:15:54;5.45;;;1.05;;
47053;SDS011;32811;52.382;5.270;2022-09-09T09:18:24;4.70;;;1.50;;
47053;SDS011;32811;52.382;5.270;2022-09-09T09:20:57;7.18;;;0.95;;
47053;SDS011;32811;52.382;5.270;2022-09-09T09:23:35;5.38;;;1.10;;
47053;SDS011;32811;52.382;5.270;2022-09-09T09:26:10;7.15;;;1.15;;
47053;SDS011;32811;52.382;5.270;2022-09-09T09:28:38;6.25;;;0.80;;
47053;SDS011;32811;52.382;5.270;2022-09-09T09:31:06;10.10;;;1.55;;
47053;SDS011;32811;52.382;5.270;2022-09-09T09:33:50;7.78;;;1.00;;
47053;SDS011;32811;52.382;5.270;2022-09-09T09:36:24;6.10;;;1.40;;
47053;SDS011;32811;52.382;5.270;2022-09-09T09:39:22;6.55;;;1.85;;
47053;SDS011;32811;52.382;5.270;2022-09-09T09:42:11;8.38;;;1.30;;
47053;SDS011;32811;52.382;5.270;2022-09-09T09:44:41;6.20;;;1.10;;
47053;SDS011;32811;52.382;5.270;2022-09-09T09:47:41;5.43;;;0.90;;
47053;SDS011;32811;52.382;5.270;2022-09-09T09:50:00;6.47;;;1.08;;
47053;SDS011;32811;52.382;5.270;2022-09-09T09:52:31;8.05;;;0.77;;
47053;SDS011;32811;52.382;5.270;2022-09-09T09:55:02;6.47;;;1.13;;
47053;SDS011;32811;52.382;5.270;2022-09-09T09:57:33;8.15;;;1.20;;
47053;SDS011;32811;52.382;5.270;2022-09-09T10:00:06;4.15;;;1.17;;
47053;SDS011;32811;52.382;5.270;2022-09-09T10:02:41;5.18;;;0.77;;
47053;SDS011;32811;52.382;5.270;2022-09-09T10:08:03;8.40;;;1.35;;
47053;SDS011;32811;52.382;5.270;2022-09-09T10:13:27;7.55;;;1.00;;
47053;SDS011;32811;52.382;5.270;2022-09-09T10:19:30;3.25;;;0.90;;
47053;SDS011;32811;52.382;5.270;2022-09-09T10:22:21;5.20;;;0.88;;
47053;SDS011;32811;52.382;5.270;2022-09-09T10:33:22;7.97;;;0.98;;
47053;SDS011;32811;52.382;5.270;2022-09-09T10:39:03;6.22;;;0.80;;
47053;SDS011;32811;52.382;5.270;2022-09-09T10:41:40;5.13;;;0.82;;
47053;SDS011;32811;52.382;5.270;2022-09-09T10:55:23;8.73;;;1.38;;
47053;SDS011;32811;52.382;5.270;2022-09-09T10:57:55;7.67;;;1.10;;
47053;SDS011;32811;52.382;5.270;2022-09-09T11:00:25;2.80;;;0.82;;
47053;SDS011;32811;52.382;5.270;2022-09-09T11:02:55;11.50;;;1.58;;
47053;SDS011;32811;52.382;5.270;2022-09-09T11:05:36;6.47;;;1.42;;
47053;SDS011;32811;52.382;5.270;2022-09-09T11:13:09;7.05;;;1.00;;
47053;SDS011;32811;52.382;5.270;2022-09-09T11:15:43;5.93;;;1.00;;
47053;SDS011;32811;52.382;5.270;2022-09-09T11:18:19;4.88;;;1.25;;
47053;SDS011;32811;52.382;5.270;2022-09-09T11:20:50;5.95;;;1.15;;
47053;SDS011;32811;52.382;5.270;2022-09-09T11:26:33;5.32;;;1.45;;
47053;SDS011;32811;52.382;5.270;2022-09-09T11:29:09;5.30;;;0.82;;
47053;SDS011;32811;52.382;5.270;2022-09-09T11:34:45;5.80;;;0.70;;
47053;SDS011;32811;52.382;5.270;2022-09-09T11:40:41;3.85;;;0.80;;
47053;SDS011;32811;52.382;5.270;2022-09-09T11:43:18;5.20;;;0.77;;
47053;SDS011;32811;52.382;5.270;2022-09-09T11:45:54;5.35;;;1.38;;
47053;SDS011;32811;52.382;5.270;2022-09-09T11:51:05;3.47;;;0.98;;
47053;SDS011;32811;52.382;5.270;2022-09-09T11:53:51;3.33;;;1.60;;
47053;SDS011;32811;52.382;5.270;2022-09-09T11:56:27;4.97;;;0.90;;
47053;SDS011;32811;52.382;5.270;2022-09-09T11:59:02;4.50;;;0.88;;
47053;SDS011;32811;52.382;5.270;2022-09-09T12:01:34;4.47;;;1.15;;
47053;SDS011;32811;52.382;5.270;2022-09-09T12:09:22;4.15;;;1.10;;
47053;SDS011;32811;52.382;5.270;2022-09-09T12:14:43;5.28;;;0.73;;
47053;SDS011;32811;52.382;5.270;2022-09-09T12:17:25;4.18;;;0.82;;
47053;SDS011;32811;52.382;5.270;2022-09-09T12:20:08;5.32;;;1.58;;
47053;SDS011;32811;52.382;5.270;2022-09-09T12:23:00;2.17;;;0.85;;
47053;SDS011;32811;52.382;5.270;2022-09-09T12:33:21;5.47;;;0.98;;
47053;SDS011;32811;52.382;5.270;2022-09-09T12:35:54;21.50;;;1.13;;
47053;SDS011;32811;52.382;5.270;2022-09-09T12:38:34;6.40;;;0.73;;
47053;SDS011;32811;52.382;5.270;2022-09-09T12:41:03;2.35;;;0.50;;
47053;SDS011;32811;52.382;5.270;2022-09-09T12:43:30;5.25;;;0.70;;
47053;SDS011;32811;52.382;5.270;2022-09-09T12:45:58;3.97;;;0.68;;
47053;SDS011;32811;52.382;5.270;2022-09-09T12:48:39;3.50;;;0.68;;
47053;SDS011;32811;52.382;5.270;2022-09-09T12:51:44;4.75;;;0.82;;
47053;SDS011;32811;52.382;5.270;2022-09-09T12:54:04;3.10;;;0.82;;
47053;SDS011;32811;52.382;5.270;2022-09-09T12:56:31;3.08;;;0.70;;
47053;SDS011;32811;52.382;5.270;2022-09-09T12:58:58;5.63;;;0.80;;
47053;SDS011;32811;52.382;5.270;2022-09-09T13:01:26;4.25;;;1.27;;
47053;SDS011;32811;52.382;5.270;2022-09-09T13:03:54;2.40;;;0.70;;
47053;SDS011;32811;52.382;5.270;2022-09-09T13:06:22;3.22;;;1.02;;
47053;SDS011;32811;52.382;5.270;2022-09-09T13:08:55;3.38;;;0.68;;
47053;SDS011;32811;52.382;5.270;2022-09-09T13:13:55;4.13;;;1.02;;
47053;SDS011;32811;52.382;5.270;2022-09-09T13:16:30;4.15;;;0.60;;
47053;SDS011;32811;52.382;5.270;2022-09-09T13:19:06;2.72;;;0.75;;
47053;SDS011;32811;52.382;5.270;2022-09-09T13:21:35;3.17;;;0.80;;
47053;SDS011;32811;52.382;5.270;2022-09-09T13:24:06;5.38;;;0.93;;
47053;SDS011;32811;52.382;5.270;2022-09-09T13:26:55;4.20;;;0.90;;
47053;SDS011;32811;52.382;5.270;2022-09-09T13:29:23;4.05;;;0.65;;
47053;SDS011;32811;52.382;5.270;2022-09-09T13:31:50;3.45;;;0.75;;
47053;SDS011;32811;52.382;5.270;2022-09-09T13:34:29;3.67;;;0.80;;
47053;SDS011;32811;52.382;5.270;2022-09-09T13:37:06;5.22;;;1.33;;
47053;SDS011;32811;52.382;5.270;2022-09-09T13:39:54;7.43;;;0.80;;
47053;SDS011;32811;52.382;5.270;2022-09-09T13:42:31;4.00;;;0.90;;
47053;SDS011;32811;52.382;5.270;2022-09-09T13:45:01;5.25;;;1.15;;
47053;SDS011;32811;52.382;5.270;2022-09-09T13:47:31;7.15;;;1.10;;
47053;SDS011;32811;52.382;5.270;2022-09-09T13:50:18;5.63;;;1.17;;
47053;SDS011;32811;52.382;5.270;2022-09-09T13:52:52;4.93;;;1.27;;
47053;SDS011;32811;52.382;5.270;2022-09-09T13:55:21;3.35;;;0.70;;
47053;SDS011;32811;52.382;5.270;2022-09-09T13:57:52;2.67;;;1.00;;
47053;SDS011;32811;52.382;5.270;2022-09-09T14:00:30;5.22;;;1.23;;
47053;SDS011;32811;52.382;5.270;2022-09-09T14:02:58;5.15;;;0.88;;
47053;SDS011;32811;52.382;5.270;2022-09-09T14:05:27;2.25;;;1.10;;
47053;SDS011;32811;52.382;5.270;2022-09-09T14:07:58;6.15;;;0.90;;
47053;SDS011;32811;52.382;5.270;2022-09-09T14:10:26;4.57;;;0.80;;
47053;SDS011;32811;52.382;5.270;2022-09-09T14:12:53;3.67;;;1.35;;
47053;SDS011;32811;52.382;5.270;2022-09-09T14:15:19;3.83;;;0.93;;
47053;SDS011;32811;52.382;5.270;2022-09-09T14:17:46;4.05;;;0.95;;
47053;SDS011;32811;52.382;5.270;2022-09-09T14:20:14;3.22;;;0.70;;
47053;SDS011;32811;52.382;5.270;2022-09-09T14:22:41;3.30;;;0.98;;
47053;SDS011;32811;52.382;5.270;2022-09-09T14:25:08;5.85;;;1.08;;
47053;SDS011;32811;52.382;5.270;2022-09-09T14:27:34;2.88;;;0.70;;
47053;SDS011;32811;52.382;5.270;2022-09-09T14:30:01;2.00;;;0.55;;
47053;SDS011;32811;52.382;5.270;2022-09-09T14:32:27;3.55;;;0.85;;
47053;SDS011;32811;52.382;5.270;2022-09-09T14:34:55;6.00;;;0.95;;
47053;SDS011;32811;52.382;5.270;2022-09-09T14:37:21;2.53;;;0.70;;
47053;SDS011;32811;52.382;5.270;2022-09-09T14:39:48;2.35;;;0.80;;
47053;SDS011;32811;52.382;5.270;2022-09-09T14:42:16;2.60;;;0.70;;
47053;SDS011;32811;52.382;5.270;2022-09-09T14:44:43;2.55;;;0.60;;
47053;SDS011;32811;52.382;5.270;2022-09-09T14:47:10;3.55;;;0.80;;
47053;SDS011;32811;52.382;5.270;2022-09-09T14:49:37;5.60;;;0.60;;
47053;SDS011;32811;52.382;5.270;2022-09-09T14:52:07;4.05;;;1.00;;
47053;SDS011;32811;52.382;5.270;2022-09-09T14:54:35;7.35;;;1.33;;
47053;SDS011;32811;52.382;5.270;2022-09-09T14:57:01;4.53;;;1.13;;
47053;SDS011;32811;52.382;5.270;2022-09-09T14:59:28;2.13;;;0.80;;
47053;SDS011;32811;52.382;5.270;2022-09-09T15:01:55;3.63;;;0.68;;
47053;SDS011;32811;52.382;5.270;2022-09-09T15:04:23;2.88;;;0.70;;
47053;SDS011;32811;52.382;5.270;2022-09-09T15:06:50;4.13;;;0.70;;
47053;SDS011;32811;52.382;5.270;2022-09-09T15:09:19;3.85;;;1.58;;
47053;SDS011;32811;52.382;5.270;2022-09-09T15:11:45;3.53;;;0.80;;
47053;SDS011;32811;52.382;5.270;2022-09-09T15:14:12;4.50;;;0.75;;
47053;SDS011;32811;52.382;5.270;2022-09-09T15:16:39;4.43;;;1.67;;
47053;SDS011;32811;52.382;5.270;2022-09-09T15:19:06;1.15;;;0.60;;
47053;SDS011;32811;52.382;5.270;2022-09-09T15:21:33;1.98;;;0.50;;
47053;SDS011;32811;52.382;5.270;2022-09-09T15:24:02;2.33;;;0.57;;
47053;SDS011;32811;52.382;5.270;2022-09-09T15:26:30;2.00;;;0.60;;
47053;SDS011;32811;52.382;5.270;2022-09-09T15:28:57;2.25;;;0.60;;
47053;SDS011;32811;52.382;5.270;2022-09-09T15:31:26;2.58;;;0.77;;
47053;SDS011;32811;52.382;5.270;2022-09-09T15:33:55;3.80;;;1.02;;
47053;SDS011;32811;52.382;5.270;2022-09-09T15:39:00;3.17;;;0.70;;
47053;SDS011;32811;52.382;5.270;2022-09-09T15:41:29;4.07;;;0.65;;
47053;SDS011;32811;52.382;5.270;2022-09-09T15:44:01;4.15;;;1.65;;
47053;SDS011;32811;52.382;5.270;2022-09-09T15:46:32;2.38;;;0.55;;
47053;SDS011;32811;52.382;5.270;2022-09-09T15:49:11;2.65;;;0.98;;
47053;SDS011;32811;52.382;5.270;2022-09-09T15:51:43;1.85;;;0.30;;
47053;SDS011;32811;52.382;5.270;2022-09-09T15:54:11;1.70;;;0.30;;
47053;SDS011;32811;52.382;5.270;2022-09-09T15:56:40;2.88;;;0.30;;
47053;SDS011;32811;52.382;5.270;2022-09-09T15:59:06;1.27;;;0.45;;
47053;SDS011;32811;52.382;5.270;2022-09-09T16:01:33;1.08;;;0.30;;
47053;SDS011;32811;52.382;5.270;2022-09-09T16:04:00;2.35;;;0.47;;
47053;SDS011;32811;52.382;5.270;2022-09-09T16:06:27;2.60;;;0.30;;
47053;SDS011;32811;52.382;5.270;2022-09-09T16:08:56;1.85;;;0.68;;
47053;SDS011;32811;52.382;5.270;2022-09-09T16:11:24;0.80;;;0.40;;
47053;SDS011;32811;52.382;5.270;2022-09-09T16:13:53;2.35;;;1.08;;
47053;SDS011;32811;52.382;5.270;2022-09-09T16:16:22;2.47;;;0.50;;
47053;SDS011;32811;52.382;5.270;2022-09-09T16:18:51;1.58;;;0.52;;
47053;SDS011;32811;52.382;5.270;2022-09-09T16:21:30;3.53;;;0.63;;
47053;SDS011;32811;52.382;5.270;2022-09-09T16:23:59;2.53;;;0.80;;
47053;SDS011;32811;52.382;5.270;2022-09-09T16:26:27;2.78;;;0.50;;
47053;SDS011;32811;52.382;5.270;2022-09-09T16:28:57;4.10;;;0.95;;
47053;SDS011;32811;52.382;5.270;2022-09-09T16:31:27;2.75;;;0.45;;
47053;SDS011;32811;52.382;5.270;2022-09-09T16:33:55;2.38;;;0.30;;
47053;SDS011;32811;52.382;5.270;2022-09-09T16:36:22;3.13;;;0.63;;
47053;SDS011;32811;52.382;5.270;2022-09-09T16:38:54;1.85;;;0.60;;
47053;SDS011;32811;52.382;5.270;2022-09-09T16:41:24;2.10;;;0.52;;
47053;SDS011;32811;52.382;5.270;2022-09-09T16:46:22;2.20;;;0.50;;
47053;SDS011;32811;52.382;5.270;2022-09-09T16:48:50;5.25;;;0.70;;
47053;SDS011;32811;52.382;5.270;2022-09-09T16:51:23;1.58;;;0.38;;
47053;SDS011;32811;52.382;5.270;2022-09-09T16:53:53;4.60;;;0.75;;
47053;SDS011;32811;52.382;5.270;2022-09-09T16:56:23;3.50;;;0.63;;
47053;SDS011;32811;52.382;5.270;2022-09-09T16:58:59;2.15;;;0.82;;
47053;SDS011;32811;52.382;5.270;2022-09-09T17:01:30;2.78;;;0.47;;
47053;SDS011;32811;52.382;5.270;2022-09-09T17:04:00;6.07;;;1.63;;
47053;SDS011;32811;52.382;5.270;2022-09-09T17:06:32;5.97;;;2.05;;
47053;SDS011;32811;52.382;5.270;2022-09-09T17:09:10;4.28;;;1.30;;
47053;SDS011;32811;52.382;5.270;2022-09-09T17:11:38;4.22;;;1.30;;
47053;SDS011;32811;52.382;5.270;2022-09-09T17:14:05;4.32;;;1.05;;
47053;SDS011;32811;52.382;5.270;2022-09-09T17:16:34;4.20;;;0.80;;
47053;SDS011;32811;52.382;5.270;2022-09-09T17:19:02;7.75;;;1.63;;
47053;SDS011;32811;52.382;5.270;2022-09-09T17:21:30;4.40;;;0.98;;
47053;SDS011;32811;52.382;5.270;2022-09-09T17:23:58;6.25;;;1.17;;
47053;SDS011;32811;52.382;5.270;2022-09-09T17:26:27;4.60;;;0.70;;
47053;SDS011;32811;52.382;5.270;2022-09-09T17:28:56;5.05;;;1.45;;
47053;SDS011;32811;52.382;5.270;2022-09-09T17:31:25;3.30;;;0.57;;